createdAt,value
2022-08-17T00:00:43.725Z,97065.26
2022-08-17T00:03:10.466Z,97068.63
2022-08-17T00:06:02.099Z,97071.65
2022-08-17T00:08:35.595Z,97082.56
2022-08-17T00:11:09.833Z,97080.44
2022-08-17T00:13:42.922Z,97079.42
2022-08-17T00:16:16.071Z,97073.69
2022-08-17T00:19:05.749Z,97068.54
2022-08-17T00:21:36.061Z,97063.09
2022-08-17T00:24:23.770Z,97059.02
2022-08-17T00:26:52.499Z,97059.45
2022-08-17T00:29:20.525Z,97059.48
2022-08-17T00:31:49.888Z,97062.05
2022-08-17T00:34:19.119Z,97058.33
2022-08-17T00:36:47.048Z,97053.90
2022-08-17T00:39:15.042Z,97050.73
2022-08-17T00:41:43.439Z,97050.02
2022-08-17T00:44:12.477Z,97045.13
2022-08-17T00:46:42.860Z,97043.72
2022-08-17T00:49:12.536Z,97043.98
2022-08-17T00:51:43.477Z,97047.41
2022-08-17T00:54:16.758Z,97049.20
2022-08-17T00:56:47.920Z,97050.63
2022-08-17T00:59:21.962Z,97055.69
2022-08-17T01:01:51.310Z,97051.42
2022-08-17T01:04:22.576Z,97050.12
2022-08-17T01:06:51.789Z,97049.59
2022-08-17T01:09:20.966Z,97051.98
2022-08-17T01:11:52.515Z,97049.41
2022-08-17T01:14:23.548Z,97053.91
2022-08-17T01:16:54.391Z,97050.30
2022-08-17T01:19:26.371Z,97052.78
2022-08-17T01:22:14.630Z,97054.47
2022-08-17T01:24:52.274Z,97058.88
2022-08-17T01:27:21.821Z,97055.20
2022-08-17T01:29:53.984Z,97050.06
2022-08-17T01:32:22.111Z,97052.98
2022-08-17T01:34:51.024Z,97055.41
2022-08-17T01:37:27.875Z,97053.46
2022-08-17T01:40:29.938Z,97052.69
2022-08-17T01:42:57.897Z,97052.46
2022-08-17T01:45:32.371Z,97050.26
2022-08-17T01:48:00.838Z,97044.98
2022-08-17T01:50:31.933Z,97047.01
2022-08-17T01:53:07.174Z,97047.41
2022-08-17T01:55:43.290Z,97045.90
2022-08-17T01:58:11.565Z,97043.13
2022-08-17T02:00:59.751Z,97043.36
2022-08-17T02:03:30.463Z,97051.19
2022-08-17T02:05:59.018Z,97054.52
2022-08-17T02:08:37.147Z,97058.01
2022-08-17T02:11:14.812Z,97056.55
2022-08-17T02:13:47.602Z,97060.58
2022-08-17T02:16:23.471Z,97057.87
2022-08-17T02:18:51.407Z,97060.19
2022-08-17T02:21:20.211Z,97060.80
2022-08-17T02:23:50.214Z,97060.38
2022-08-17T02:26:25.831Z,97064.95
2022-08-17T02:28:55.073Z,97068.62
2022-08-17T02:31:23.062Z,97068.05
2022-08-17T02:34:00.549Z,97064.61
2022-08-17T02:36:36.620Z,97059.98
2022-08-17T02:39:08.040Z,97055.45
2022-08-17T02:41:36.702Z,97054.97
2022-08-17T02:44:06.080Z,97059.09
2022-08-17T02:46:34.595Z,97062.46
2022-08-17T02:49:04.784Z,97065.63
2022-08-17T02:51:35.375Z,97073.66
2022-08-17T02:54:39.239Z,97073.37
2022-08-17T02:56:52.019Z,97072.61
2022-08-17T02:59:20.008Z,97071.16
2022-08-17T03:01:48.194Z,97073.89
2022-08-17T03:04:16.951Z,97072.88
2022-08-17T03:06:45.130Z,97072.88
2022-08-17T03:09:13.484Z,97071.95
2022-08-17T03:11:41.562Z,97073.75
2022-08-17T03:14:09.484Z,97074.81
2022-08-17T03:16:37.614Z,97080.88
2022-08-17T03:19:07.348Z,97088.46
2022-08-17T03:21:36.064Z,97087.69
2022-08-17T03:24:08.802Z,97087.88
2022-08-17T03:26:37.738Z,97085.71
2022-08-17T03:29:05.768Z,97090.75
2022-08-17T03:31:33.723Z,97099.34
2022-08-17T03:34:05.245Z,97099.15
2022-08-17T03:36:36.088Z,97099.31
2022-08-17T03:39:05.054Z,97101.52
2022-08-17T03:41:33.444Z,97109.41
2022-08-17T03:44:01.928Z,97114.11
2022-08-17T03:47:08.723Z,97117.92
2022-08-17T03:49:55.304Z,97121.09
2022-08-17T03:52:41.980Z,97122.50
2022-08-17T03:55:35.749Z,97127.45
2022-08-17T03:58:04.675Z,97130.95
2022-08-17T04:00:32.694Z,97132.55
2022-08-17T04:03:06.880Z,97134.69
2022-08-17T04:05:37.702Z,97136.02
2022-08-17T04:08:06.302Z,97139.05
2022-08-17T04:10:38.460Z,97136.66
2022-08-17T04:13:14.079Z,97134.20
2022-08-17T04:15:42.052Z,97138.94
2022-08-17T04:18:11.083Z,97138.51
2022-08-17T04:20:39.150Z,97133.41
2022-08-17T04:23:14.070Z,97134.00
2022-08-17T04:25:46.345Z,97133.79
2022-08-17T04:28:16.092Z,97133.75
2022-08-17T04:30:47.161Z,97130.86
2022-08-17T04:33:18.945Z,97128.77
2022-08-17T04:35:49.553Z,97124.72
2022-08-17T04:38:20.567Z,97118.48
2022-08-17T04:41:07.853Z,97120.34
2022-08-17T04:43:38.470Z,97116.69
2022-08-17T04:46:22.566Z,97123.40
2022-08-17T04:48:53.423Z,97126.62
2022-08-17T04:51:21.293Z,97118.96
2022-08-17T04:53:54.806Z,97114.33
2022-08-17T04:56:26.088Z,97116.70
2022-08-17T04:58:57.927Z,97119.20
2022-08-17T05:01:28.468Z,97126.27
2022-08-17T05:04:01.899Z,97132.37
2022-08-17T05:06:49.803Z,97129.22
2022-08-17T05:09:18.785Z,97127.97
2022-08-17T05:11:47.006Z,97129.00
2022-08-17T05:14:15.248Z,97123.25
2022-08-17T05:16:43.245Z,97119.88
2022-08-17T05:19:11.575Z,97117.33
2022-08-17T05:21:39.696Z,97119.29
2022-08-17T05:24:15.571Z,97119.30
2022-08-17T05:26:55.698Z,97119.45
2022-08-17T05:29:23.717Z,97122.14
2022-08-17T05:32:38.034Z,97118.20
2022-08-17T05:35:02.149Z,97116.98
2022-08-17T05:37:30.228Z,97120.38
2022-08-17T05:39:58.335Z,97122.18
2022-08-17T05:42:26.246Z,97124.25
2022-08-17T05:44:57.944Z,97122.89
2022-08-17T05:47:27.043Z,97123.27
2022-08-17T05:49:55.165Z,97121.62
2022-08-17T05:52:57.372Z,97121.17
2022-08-17T05:55:48.673Z,97122.13
2022-08-17T05:58:39.993Z,97123.00
2022-08-17T06:01:26.976Z,97123.56
2022-08-17T06:04:04.892Z,97117.90
2022-08-17T06:06:42.514Z,97119.31
2022-08-17T06:09:28.879Z,97116.27
2022-08-17T06:12:28.960Z,97118.06
2022-08-17T06:15:15.284Z,97115.33
2022-08-17T06:17:43.978Z,97113.82
2022-08-17T06:20:14.795Z,97106.31
2022-08-17T06:22:49.070Z,97109.31
2022-08-17T06:25:45.444Z,97103.81
2022-08-17T06:28:19.182Z,97096.60
2022-08-17T06:30:58.629Z,97084.59
2022-08-17T06:33:37.016Z,97077.39
2022-08-17T06:36:16.033Z,97077.86
2022-08-17T06:39:18.195Z,97072.88
2022-08-17T06:42:05.722Z,97072.89
2022-08-17T06:44:51.089Z,97073.52
2022-08-17T06:47:28.321Z,97069.48
2022-08-17T06:50:00.870Z,97068.34
2022-08-17T06:52:45.268Z,97071.36
2022-08-17T06:55:24.051Z,97075.25
2022-08-17T06:57:58.205Z,97071.80
2022-08-17T07:00:47.951Z,97077.95
2022-08-17T07:03:43.488Z,97083.49
2022-08-17T07:06:14.778Z,97092.75
2022-08-17T07:08:51.983Z,97099.94
2022-08-17T07:11:27.445Z,97101.73
2022-08-17T07:14:04.693Z,97105.66
2022-08-17T07:16:42.425Z,97105.23
2022-08-17T07:19:10.846Z,97101.34
2022-08-17T07:22:03.946Z,97104.70
2022-08-17T07:24:53.420Z,97099.76
2022-08-17T07:27:31.173Z,97103.61
2022-08-17T07:30:10.947Z,97102.84
2022-08-17T07:32:50.894Z,97101.59
2022-08-17T07:35:41.433Z,97103.73
2022-08-17T07:38:25.394Z,97096.02
2022-08-17T07:40:57.906Z,97095.91
2022-08-17T07:43:26.218Z,97097.04
2022-08-17T07:46:36.881Z,97097.05
2022-08-17T07:49:06.858Z,97094.83
2022-08-17T07:51:36.649Z,97096.77
2022-08-17T07:54:50.728Z,97097.98
2022-08-17T07:57:27.935Z,97100.22
2022-08-17T08:00:01.476Z,97098.69
2022-08-17T08:02:40.600Z,97098.65
2022-08-17T08:05:30.722Z,97098.23
2022-08-17T08:08:31.653Z,97095.98
2022-08-17T08:11:06.306Z,97090.65
2022-08-17T08:13:35.217Z,97091.70
2022-08-17T08:16:24.548Z,97091.80
2022-08-17T08:18:57.811Z,97090.05
2022-08-17T08:21:53.234Z,97085.98
2022-08-17T08:24:37.348Z,97087.96
2022-08-17T08:27:27.260Z,97084.48
2022-08-17T08:30:08.906Z,97086.18
2022-08-17T08:33:14.743Z,97088.65
2022-08-17T08:35:48.682Z,97087.60
2022-08-17T08:38:29.486Z,97089.08
2022-08-17T08:41:26.398Z,97091.56
2022-08-17T08:44:13.079Z,97089.80
2022-08-17T08:46:54.539Z,97086.35
2022-08-17T08:50:03.525Z,97086.52
2022-08-17T08:53:03.901Z,97091.86
2022-08-17T08:55:49.607Z,97092.66
2022-08-17T08:58:32.289Z,97092.73
2022-08-17T09:01:23.102Z,97091.77
2022-08-17T09:04:29.035Z,97090.79
2022-08-17T09:07:03.316Z,97089.99
2022-08-17T09:09:48.177Z,97091.37
2022-08-17T09:12:48.599Z,97087.87
2022-08-17T09:15:22.229Z,97088.61
2022-08-17T09:19:02.653Z,97078.83
2022-08-17T09:21:02.975Z,97085.07
2022-08-17T09:23:41.119Z,97084.96
2022-08-17T09:26:22.195Z,97088.42
2022-08-17T09:28:53.586Z,97090.95
2022-08-17T09:31:33.266Z,97096.80
2022-08-17T09:34:33.132Z,97095.26
2022-08-17T09:37:20.241Z,97094.98
2022-08-17T09:40:21.381Z,97094.30
2022-08-17T09:43:04.938Z,97095.73
2022-08-17T09:45:51.388Z,97098.31
2022-08-17T09:48:34.021Z,97103.30
2022-08-17T09:51:07.131Z,97104.52
2022-08-17T09:53:39.670Z,97102.82
2022-08-17T09:56:45.380Z,97101.71
2022-08-17T09:59:27.673Z,97103.64
2022-08-17T10:02:26.945Z,97108.89
2022-08-17T10:05:13.796Z,97104.78
2022-08-17T10:07:52.766Z,97096.95
2022-08-17T10:10:37.169Z,97099.82
2022-08-17T10:13:41.653Z,97100.89
2022-08-17T10:16:25.848Z,97091.02
2022-08-17T10:19:13.936Z,97093.02
2022-08-17T10:22:32.745Z,97094.91
2022-08-17T10:25:23.562Z,97087.65
2022-08-17T10:27:57.603Z,97091.13
2022-08-17T10:30:30.565Z,97084.73
2022-08-17T10:33:03.415Z,97078.20
2022-08-17T10:35:35.256Z,97079.07
2022-08-17T10:38:12.908Z,97082.94
2022-08-17T10:40:53.644Z,97084.67
2022-08-17T10:44:36.976Z,97080.00
2022-08-17T10:46:55.640Z,97079.45
2022-08-17T10:49:29.466Z,97077.81
2022-08-17T10:52:00.681Z,97076.81
2022-08-17T10:54:40.797Z,97068.34
2022-08-17T10:57:26.970Z,97068.90
2022-08-17T10:59:57.395Z,97069.33
2022-08-17T11:02:45.898Z,97058.51
2022-08-17T11:05:43.279Z,97054.83
2022-08-17T11:08:33.360Z,97060.66
2022-08-17T11:11:23.487Z,97062.14
2022-08-17T11:14:13.961Z,97057.25
2022-08-17T11:16:50.341Z,97061.22
2022-08-17T11:19:21.430Z,97067.30
2022-08-17T11:21:52.737Z,97074.31
2022-08-17T11:24:44.871Z,97071.27
2022-08-17T11:27:33.345Z,97070.17
2022-08-17T11:30:05.390Z,97067.30
2022-08-17T11:32:47.678Z,97060.30
2022-08-17T11:35:22.740Z,97053.79
2022-08-17T11:38:28.427Z,97058.36
2022-08-17T11:41:27.718Z,97054.89
2022-08-17T11:44:26.829Z,97055.13
2022-08-17T11:47:37.185Z,97047.22
2022-08-17T11:51:01.748Z,97047.66
2022-08-17T11:53:38.891Z,97046.04
2022-08-17T11:56:30.295Z,97042.08
2022-08-17T11:59:00.573Z,97036.67
2022-08-17T12:01:31.785Z,97035.31
2022-08-17T12:04:31.898Z,97033.08
2022-08-17T12:07:09.203Z,97031.09
2022-08-17T12:09:46.271Z,97029.58
2022-08-17T12:12:19.777Z,97029.55
2022-08-17T12:17:42.844Z,97025.85
2022-08-17T12:20:19.774Z,97022.17
2022-08-17T12:23:09.523Z,97026.46
2022-08-17T12:25:55.773Z,97027.64
2022-08-17T12:28:26.673Z,97026.74
2022-08-17T12:31:00.022Z,97019.24
2022-08-17T12:33:28.966Z,97023.59
2022-08-17T12:36:08.646Z,97022.95
2022-08-17T12:38:38.409Z,97021.05
2022-08-17T12:41:28.605Z,97016.71
2022-08-17T12:44:14.289Z,97018.44
2022-08-17T12:46:56.057Z,97023.31
2022-08-17T12:49:29.954Z,97023.31
2022-08-17T12:52:23.943Z,97019.89
2022-08-17T12:54:59.863Z,97018.82
2022-08-17T12:57:38.928Z,97015.34
2022-08-17T13:00:17.755Z,97008.50
2022-08-17T13:02:51.502Z,97026.48
2022-08-17T13:05:27.841Z,97025.17
2022-08-17T13:07:59.343Z,97015.09
2022-08-17T13:10:36.248Z,97011.89
2022-08-17T13:13:19.646Z,97014.90
2022-08-17T13:16:01.539Z,97032.25
2022-08-17T13:18:43.624Z,97016.92
2022-08-17T13:21:33.720Z,97015.23
2022-08-17T13:24:10.765Z,97012.98
2022-08-17T13:27:12.161Z,97011.98
2022-08-17T13:29:53.252Z,97012.73
2022-08-17T13:32:31.082Z,97013.55
2022-08-17T13:35:29.564Z,97011.84
2022-08-17T13:38:08.558Z,97025.23
2022-08-17T13:40:49.190Z,97032.00
2022-08-17T13:43:40.535Z,97037.83
2022-08-17T13:46:21.078Z,97039.70
2022-08-17T13:49:07.032Z,97038.91
2022-08-17T13:51:46.887Z,97039.91
2022-08-17T13:54:29.900Z,97035.16
2022-08-17T13:57:01.298Z,97033.94
2022-08-17T13:59:54.172Z,97036.52
2022-08-17T14:02:26.640Z,97030.52
2022-08-17T14:04:58.454Z,97029.15
2022-08-17T14:07:31.375Z,97027.73
2022-08-17T14:10:21.761Z,97031.70
2022-08-17T14:12:50.723Z,97042.05
2022-08-17T14:15:22.927Z,97047.93
2022-08-17T14:17:53.830Z,97043.90
2022-08-17T14:20:22.846Z,97036.23
2022-08-17T14:22:53.803Z,97034.46
2022-08-17T14:25:25.107Z,97028.16
2022-08-17T14:27:54.275Z,97027.34
2022-08-17T14:30:29.030Z,97023.95
2022-08-17T14:32:59.139Z,97026.65
2022-08-17T14:35:28.352Z,97022.42
2022-08-17T14:37:56.717Z,97040.30
2022-08-17T14:40:25.506Z,97031.38
2022-08-17T14:42:55.532Z,97034.77
2022-08-17T14:45:30.186Z,97042.35
2022-08-17T14:48:04.346Z,97040.48
2022-08-17T14:50:35.832Z,97039.70
2022-08-17T14:53:06.528Z,97039.95
2022-08-17T14:55:36.988Z,97042.04
2022-08-17T14:58:05.467Z,97044.34
2022-08-17T15:00:37.377Z,97043.91
2022-08-17T15:03:06.017Z,97044.85
2022-08-17T15:05:36.753Z,97041.02
2022-08-17T15:08:05.820Z,97048.19
2022-08-17T15:10:34.463Z,97050.80
2022-08-17T15:13:02.811Z,97049.21
2022-08-17T15:15:31.390Z,97040.97
2022-08-17T15:18:00.252Z,97038.48
2022-08-17T15:20:30.151Z,97033.91
2022-08-17T15:22:59.301Z,97039.35
2022-08-17T15:25:30.482Z,97043.27
2022-08-17T15:28:00.455Z,97047.26
2022-08-17T15:30:29.730Z,97052.89
2022-08-17T15:33:02.109Z,97060.87
2022-08-17T15:35:33.350Z,97073.91
2022-08-17T15:38:11.306Z,97077.63
2022-08-17T15:40:44.408Z,97093.04
2022-08-17T15:43:22.136Z,97131.85
2022-08-17T15:46:06.559Z,97143.95
2022-08-17T15:48:42.073Z,97150.09
2022-08-17T15:51:12.187Z,97171.72
2022-08-17T15:53:42.409Z,97204.80
2022-08-17T15:56:11.443Z,97205.38
2022-08-17T15:58:42.422Z,97207.05
2022-08-17T16:01:16.560Z,97212.09
2022-08-17T16:04:03.924Z,97226.44
2022-08-17T16:06:34.921Z,97224.21
2022-08-17T16:09:03.217Z,97220.67
2022-08-17T16:11:31.593Z,97216.61
2022-08-17T16:14:00.243Z,97221.73
2022-08-17T16:16:31.382Z,97223.67
2022-08-17T16:18:59.799Z,97214.56
2022-08-17T16:21:31.224Z,97209.82
2022-08-17T16:24:13.104Z,97208.73
2022-08-17T16:26:42.786Z,97203.73
2022-08-17T16:29:11.072Z,97197.98
2022-08-17T16:31:39.201Z,97199.02
2022-08-17T16:34:17.266Z,97210.38
2022-08-17T16:36:54.722Z,97216.23
2022-08-17T16:39:26.817Z,97219.22
2022-08-17T16:41:56.091Z,97221.67
2022-08-17T16:44:26.033Z,97223.09
2022-08-17T16:46:54.147Z,97213.56
2022-08-17T16:49:35.063Z,97213.41
2022-08-17T16:52:08.414Z,97217.41
2022-08-17T16:54:42.078Z,97215.73
2022-08-17T16:57:11.409Z,97215.85
2022-08-17T16:59:42.596Z,97221.54
2022-08-17T17:02:16.324Z,97225.50
2022-08-17T17:04:55.688Z,97225.66
2022-08-17T17:07:49.837Z,97229.73
2022-08-17T17:10:30.388Z,97234.98
2022-08-17T17:13:03.269Z,97229.11
2022-08-17T17:15:45.274Z,97224.39
2022-08-17T17:18:16.026Z,97226.77
2022-08-17T17:20:55.386Z,97225.77
2022-08-17T17:23:23.459Z,97225.92
2022-08-17T17:26:03.926Z,97225.49
2022-08-17T17:28:53.104Z,97226.45
2022-08-17T17:31:25.718Z,97223.30
2022-08-17T17:33:58.012Z,97225.23
2022-08-17T17:36:34.052Z,97226.39
2022-08-17T17:39:10.007Z,97228.45
2022-08-17T17:41:58.000Z,97232.15
2022-08-17T17:44:32.414Z,97229.88
2022-08-17T17:47:02.569Z,97228.78
2022-08-17T17:49:35.782Z,97231.71
2022-08-17T17:52:19.553Z,97229.79
2022-08-17T17:55:13.412Z,97230.33
2022-08-17T17:57:48.232Z,97233.15
2022-08-17T18:00:22.153Z,97239.02
2022-08-17T18:03:06.578Z,97245.20
2022-08-17T18:06:01.205Z,97249.91
2022-08-17T18:08:44.701Z,97253.15
2022-08-17T18:11:25.904Z,97258.09
2022-08-17T18:14:21.529Z,97258.33
2022-08-17T18:16:59.211Z,97254.84
2022-08-17T18:19:30.040Z,97257.52
2022-08-17T18:22:18.299Z,97258.03
2022-08-17T18:24:57.422Z,97253.80
2022-08-17T18:27:32.526Z,97250.08
2022-08-17T18:30:22.153Z,97259.33
2022-08-17T18:32:50.302Z,97253.67
2022-08-17T18:35:18.421Z,97257.30
2022-08-17T18:37:46.635Z,97254.58
2022-08-17T18:40:26.444Z,97252.65
2022-08-17T18:43:00.545Z,97254.63
2022-08-17T18:45:34.918Z,97249.33
2022-08-17T18:48:03.601Z,97252.48
2022-08-17T18:50:41.442Z,97258.03
2022-08-17T18:53:41.277Z,97267.81
2022-08-17T18:56:17.341Z,97270.23
2022-08-17T18:58:53.905Z,97271.34
2022-08-17T19:01:41.489Z,97268.77
2022-08-17T19:04:46.159Z,97266.59
2022-08-17T19:07:17.150Z,97268.88
2022-08-17T19:09:50.757Z,97270.98
2022-08-17T19:12:27.755Z,97270.93
2022-08-17T19:14:58.453Z,97275.54
2022-08-17T19:17:43.584Z,97281.61
2022-08-17T19:20:20.355Z,97279.48
2022-08-17T19:23:01.621Z,97277.29
2022-08-17T19:25:38.643Z,97282.50
2022-08-17T19:28:23.334Z,97284.02
2022-08-17T19:30:57.884Z,97287.83
2022-08-17T19:33:26.486Z,97282.31
2022-08-17T19:36:06.438Z,97281.77
2022-08-17T19:39:00.087Z,97283.83
2022-08-17T19:41:48.854Z,97284.95
2022-08-17T19:44:51.411Z,97282.45
2022-08-17T19:47:54.363Z,97278.21
2022-08-17T19:50:44.340Z,97272.86
2022-08-17T19:54:04.247Z,97272.26
2022-08-17T19:57:09.973Z,97272.30
2022-08-17T19:59:57.177Z,97275.70
2022-08-17T20:02:43.991Z,97275.91
2022-08-17T20:05:24.313Z,97276.16
2022-08-17T20:08:05.381Z,97277.96
2022-08-17T20:11:06.986Z,97274.38
2022-08-17T20:13:41.391Z,97275.94
2022-08-17T20:16:11.357Z,97274.30
2022-08-17T20:18:57.420Z,97272.66
2022-08-17T20:21:37.263Z,97279.59
2022-08-17T20:24:20.227Z,97285.90
2022-08-17T20:26:58.907Z,97286.45
2022-08-17T20:29:54.516Z,97286.39
2022-08-17T20:32:29.062Z,97283.98
2022-08-17T20:35:22.522Z,97277.96
2022-08-17T20:38:02.334Z,97277.77
2022-08-17T20:40:57.849Z,97281.66
2022-08-17T20:43:35.750Z,97286.30
2022-08-17T20:46:03.623Z,97284.04
2022-08-17T20:48:40.433Z,97280.14
2022-08-17T20:51:29.413Z,97277.31
2022-08-17T20:54:06.702Z,97276.46
2022-08-17T20:56:43.822Z,97280.70
2022-08-17T20:59:32.055Z,97280.69
2022-08-17T21:02:08.874Z,97283.56
2022-08-17T21:04:52.397Z,97283.99
2022-08-17T21:07:42.920Z,97285.73
2022-08-17T21:10:21.426Z,97288.52
2022-08-17T21:13:13.939Z,97282.91
2022-08-17T21:15:52.670Z,97284.27
2022-08-17T21:18:30.178Z,97285.08
2022-08-17T21:21:07.225Z,97278.42
2022-08-17T21:23:56.113Z,97277.08
2022-08-17T21:26:39.004Z,97275.74
2022-08-17T21:29:31.310Z,97279.04
2022-08-17T21:32:03.725Z,97278.36
2022-08-17T21:34:44.390Z,97276.10
2022-08-17T21:37:24.610Z,97276.73
2022-08-17T21:40:19.446Z,97275.39
2022-08-17T21:42:55.763Z,97273.64
2022-08-17T21:45:37.334Z,97272.73
2022-08-17T21:48:16.267Z,97277.51
2022-08-17T21:50:58.032Z,97279.08
2022-08-17T21:53:36.733Z,97278.17
2022-08-17T21:56:06.359Z,97279.42
2022-08-17T21:58:40.312Z,97282.77
2022-08-17T22:01:23.819Z,97279.52
2022-08-17T22:04:20.183Z,97275.66
2022-08-17T22:06:56.978Z,97274.99
2022-08-17T22:09:35.921Z,97276.45
2022-08-17T22:12:21.708Z,97282.15
2022-08-17T22:14:54.192Z,97282.92
2022-08-17T22:17:29.963Z,97281.33
2022-08-17T22:20:09.726Z,97284.72
2022-08-17T22:23:05.157Z,97283.51
2022-08-17T22:25:36.861Z,97279.56
2022-08-17T22:28:07.773Z,97278.31
2022-08-17T22:30:39.340Z,97274.90
2022-08-17T22:33:29.132Z,97274.29
2022-08-17T22:36:22.745Z,97276.50
2022-08-17T22:39:10.924Z,97275.77
2022-08-17T22:41:52.116Z,97276.65
2022-08-17T22:44:34.166Z,97275.57
2022-08-17T22:47:06.772Z,97272.39
2022-08-17T22:49:54.745Z,97272.23
2022-08-17T22:52:30.109Z,97272.93
2022-08-17T22:55:26.182Z,97275.91
2022-08-17T22:58:12.968Z,97267.23
2022-08-17T23:00:44.865Z,97266.49
2022-08-17T23:03:19.158Z,97268.07
2022-08-17T23:06:03.642Z,97267.31
2022-08-17T23:08:35.135Z,97272.16
2022-08-17T23:11:05.558Z,97276.03
2022-08-17T23:13:33.596Z,97281.86
2022-08-17T23:16:02.552Z,97281.35
2022-08-17T23:18:30.518Z,97277.59
2022-08-17T23:20:59.953Z,97278.73
2022-08-17T23:23:27.882Z,97278.59
2022-08-17T23:25:55.909Z,97277.92
2022-08-17T23:28:23.891Z,97275.97
2022-08-17T23:30:51.900Z,97272.27
2022-08-17T23:33:31.045Z,97270.23
2022-08-17T23:35:59.337Z,97266.84
2022-08-17T23:38:29.031Z,97263.89
2022-08-17T23:41:00.415Z,97262.91
2022-08-17T23:43:30.540Z,97257.98
2022-08-17T23:45:59.983Z,97256.70
2022-08-17T23:48:36.665Z,97259.38
2022-08-17T23:51:11.103Z,97258.48
2022-08-17T23:53:44.219Z,97258.08
2022-08-17T23:56:12.247Z,97257.06
2022-08-17T23:58:42.513Z,97258.64
